Πλησιέστερες Αναφορές METAR

 

LGTS - Thessaloniki/Makedonia-Elev 7m
Απόσταση από σταθμό: Ν 13km
Ενημερώθηκε: 21/07/2017 13:20
Διάσπαρτα Νέφη
Διάσπαρτα Νέφη
 Ανεμοι από ΔΒΔ
Ανεμος: ΔΒΔ 15 km/h
Θερμοκρασία: 30°C
Δείκτης Δυσφορίας: 30°C
Σημείο Δρόσου: 16°C
Υγρασία: 43%
Βαρόμετρο: 1014 hPa
Νέφωση: Διάσπαρτα Νέφη
Ορατότητα: 10 km
Λεπτομέρειες Νεφών: Διάσπαρτα Νέφη 914 m
2017/07/21 10:20 LGTS 211020Z 29008KT 9999 FEW030 30/16 Q1014 NOSIG
LGAV - Athens/Elef. Venizelos-Elev 94m
Απόσταση από σταθμό: ΝΝΑ 312km
Ενημερώθηκε: 21/07/2017 13:20
Αίθριος
Αίθριος
 Ανεμοι από Β
Ανεμος: Β 33 km/h
Θερμοκρασία: 30°C
Σημείο Δρόσου: 9°C
Υγρασία: 27%
Βαρόμετρο: 1012 hPa
Περίληψη: Αίθριος
Ορατότητα: πάνω από 10 km
2017/07/21 10:20 LGAV 211020Z 01018KT CAVOK 30/09 Q1012 NOSIG
 
LGAL - Alexandroupolis-Elev 3m
Απόσταση από σταθμό: Α 251km
Ενημερώθηκε: 21/07/2017 13:20
Αίθριος
Αίθριος
 Ανεμοι από Β
Ανεμος: Β 26 km/h
Θερμοκρασία: 31°C
Σημείο Δρόσου: 12°C
Υγρασία: 31%
Βαρόμετρο: 1012 hPa
Περίληψη: Αίθριος
Ορατότητα: πάνω από 10 km
2017/07/21 10:20 LGAL 211020Z 01014KT CAVOK 31/12 Q1012
LGKV - Kavala/Crysoupolis-Elev 5m
Απόσταση από σταθμό: ΑΒΑ 144km
Ενημερώθηκε: 21/07/2017 13:20
Διάσπαρτα Νέφη
Διάσπαρτα Νέφη
 Ανεμοι από Ν
Ανεμος: Ν 15 km/h
Θερμοκρασία: 30°C
Σημείο Δρόσου: 12°C
Υγρασία: 33%
Βαρόμετρο: 1013 hPa
Νέφωση: Διάσπαρτα Νέφη
Ορατότητα: 10 km
Λεπτομέρειες Νεφών: Διάσπαρτα Νέφη 762 m
2017/07/21 10:20 LGKV 211020Z 17008KT 9999 FEW025 30/12 Q1013
 
LGSK - Skiathos Island-Elev 15m
Απόσταση από σταθμό: ΝΝΑ 168km
Ενημερώθηκε: 21/07/2017 12:50
Διάσπαρτα Νέφη
Διάσπαρτα Νέφη
 Ανεμοι από Β
Ανεμος: Β 9 km/h
Θερμοκρασία: 27°C
Δείκτης Δυσφορίας: 30°C
Σημείο Δρόσου: 23°C
Υγρασία: 79%
Βαρόμετρο: 1014 hPa
Νέφωση: Διάσπαρτα Νέφη
Ορατότητα: 10 km
Λεπτομέρειες Νεφών: Διάσπαρτα Νέφη 457 m
2017/07/21 09:50 LGSK 210950Z 01005KT 9999 FEW015 27/23 Q1014
LGLM - Limnos Island-Elev 5m
Απόσταση από σταθμό: ΑΝΑ 210km
Ενημερώθηκε: 21/07/2017 13:20
Αίθριος
Αίθριος
 Ανεμοι από ΒΒΑ
Ανεμος: ΒΒΑ 31 km/h
Θερμοκρασία: 28°C
Δείκτης Δυσφορίας: 28°C
Σημείο Δρόσου: 14°C
Υγρασία: 42%
Βαρόμετρο: 1012 hPa
Περίληψη: Αίθριος
Ορατότητα: πάνω από 10 km
2017/07/21 10:20 LGLM 211020Z 02017KT CAVOK 28/14 Q1012
 
LGMT - Mitilini Island-Elev 17m
Απόσταση από σταθμό: ΑΝΑ 358km
Ενημερώθηκε: 21/07/2017 13:20
Αίθριος
Αίθριος
 Ανεμοι από ΒΒΔ
Ανεμος: ΒΒΔ 26 km/h
Θερμοκρασία: 29°C
Δείκτης Δυσφορίας: 29°C
Σημείο Δρόσου: 15°C
Υγρασία: 43%
Βαρόμετρο: 1010 hPa
Περίληψη: Αίθριος
Ορατότητα: πάνω από 10 km
2017/07/21 10:20 LGMT 211020Z 33014KT 300V360 CAVOK 29/15 Q1010
LGSY - Skiros Island-Elev 15m
Απόσταση από σταθμό: ΝΑ 227km
Ενημερώθηκε: 21/07/2017 12:50
Αίθριος
Αίθριος
 Ανεμοι από Β
Ανεμος: Β 24 km/h
Θερμοκρασία: 27°C
Δείκτης Δυσφορίας: 28°C
Σημείο Δρόσου: 18°C
Υγρασία: 58%
Βαρόμετρο: 1012 hPa
Περίληψη: Αίθριος
Ορατότητα: πάνω από 10 km
2017/07/21 09:50 LGSY 210950Z 35013KT CAVOK 27/18 Q1012 BLU
 
LGKZ - Kozani-Elev 628m
Απόσταση από σταθμό: ΔΝΔ 102km
Ενημερώθηκε: 21/07/2017 12:50
Μερικώς νεφελώδης
Μερικώς νεφελώδης
 Ανεμοι από άπνοια
Ανεμος: άπνοια
Θερμοκρασία: 28°C
Δείκτης Δυσφορίας: 28°C
Σημείο Δρόσου: 14°C
Υγρασία: 42%
Βαρόμετρο: 1017 hPa
Νέφωση: Μερικώς νεφελώδης
Ορατότητα: 10 km
Λεπτομέρειες Νεφών: Διάσπαρτα Νέφη 762 m
Μερικώς νεφελώδης 2134 m
2017/07/21 09:50 LGKZ 210950Z 00000KT 9999 FEW025 SCT070 28/14 Q1017
LGIO - Ioannina-Elev 476m
Απόσταση από σταθμό: ΔΝΔ 209km
Ενημερώθηκε: 21/07/2017 13:20
Διάσπαρτα Νέφη
Διάσπαρτα Νέφη
 Ανεμοι από μεταβλητός
Ανεμος: μεταβλητός 0 km/h
Θερμοκρασία: 31°C
Σημείο Δρόσου: 15°C
Υγρασία: 38%
Βαρόμετρο: 1017 hPa
Νέφωση: Διάσπαρτα Νέφη
Ορατότητα: 10 km
Λεπτομέρειες Νεφών: Διάσπαρτα Νέφη 1067 m
2017/07/21 10:20 LGIO 211020Z /////KT 9999 FEW035 31/15 Q1017
 
LGZA - Zakinthos-Elev 3m
Απόσταση από σταθμό: ΝΝΔ 367km
Ενημερώθηκε: 21/07/2017 13:20
Αίθριος
Αίθριος
 Ανεμοι από ΒΒΔ
Ανεμος: ΒΒΔ 15 km/h
Θερμοκρασία: 33°C
Σημείο Δρόσου: 14°C
Υγρασία: 32%
Βαρόμετρο: 1013 hPa
Περίληψη: Αίθριος
Ορατότητα: πάνω από 10 km
2017/07/21 10:20 LGZA 211020Z 34008KT CAVOK 33/14 Q1013
LGKR - Corfu Island-Elev 2m
Απόσταση από σταθμό: ΔΝΔ 282km
Ενημερώθηκε: 21/07/2017 13:20
Αίθριος
Αίθριος
 Ανεμοι από ΝΑ
Ανεμος: ΝΑ 13 km/h
Θερμοκρασία: 32°C
Δείκτης Δυσφορίας: 33°C
Σημείο Δρόσου: 18°C
Υγρασία: 43%
Βαρόμετρο: 1013 hPa
Περίληψη: Αίθριος
Ορατότητα: πάνω από 10 km
2017/07/21 10:20 LGKR 211020Z 13007KT CAVOK 32/18 Q1013 NOSIG
 
LGSO - Syros Island-Elev 72m
Απόσταση από σταθμό: ΝΝΑ 397km
Ενημερώθηκε: 21/07/2017 12:50
Αίθριος
Αίθριος
 Ανεμοι από Β
Ανεμος: Β 37 km/h, Ριπή: 56 km/h
Θερμοκρασία: 27°C
Δείκτης Δυσφορίας: 27°C
Σημείο Δρόσου: 14°C
Υγρασία: 45%
Βαρόμετρο: 1010 hPa
Περίληψη: Αίθριος
Ορατότητα: πάνω από 10 km
2017/07/21 09:50 LGSO 210950Z 36020G30KT CAVOK 27/14 Q1010
LGMK - Mikonos Island-Elev 123m
Απόσταση από σταθμό: ΝΝΑ 412km
Ενημερώθηκε: 21/07/2017 13:20
Αίθριος
Αίθριος
 Ανεμοι από Β
Ανεμος: Β 44 km/h, Ριπή: 63 km/h
Θερμοκρασία: 26°C
Σημείο Δρόσου: 18°C
Υγρασία: 61%
Βαρόμετρο: 1009 hPa
Περίληψη: Αίθριος
Ορατότητα: πάνω από 10 km
2017/07/21 10:20 LGMK 211020Z 35024G34KT CAVOK 26/18 Q1009
 
LGSR - Santorini Island-Elev 40m
Απόσταση από σταθμό: ΝΝΑ 520km
Ενημερώθηκε: 21/07/2017 13:20
Αίθριος
Αίθριος
 Ανεμοι από ΒΒΔ
Ανεμος: ΒΒΔ 31 km/h
Θερμοκρασία: 28°C
Δείκτης Δυσφορίας: 28°C
Σημείο Δρόσου: 17°C
Υγρασία: 51%
Βαρόμετρο: 1009 hPa
Περίληψη: Αίθριος
Ορατότητα: πάνω από 10 km
2017/07/21 10:20 LGSR 211020Z 34017KT CAVOK 28/17 Q1009
LGKL - Kalamata-Elev 8m
Απόσταση από σταθμό: Ν 405km
Ενημερώθηκε: 21/07/2017 13:20
Αίθριος
Αίθριος
 Ανεμοι από Ν
Ανεμος: Ν 13 km/h
Θερμοκρασία: 30°C
Σημείο Δρόσου: 13°C
Υγρασία: 35%
Βαρόμετρο: 1012 hPa
Περίληψη: Αίθριος
Ορατότητα: πάνω από 10 km
2017/07/21 10:20 LGKL 211020Z 18007KT CAVOK 30/13 Q1012
 
LGIR - Iraklion/Crete-Elev 5m
Απόσταση από σταθμό: ΝΝΑ 622km
Ενημερώθηκε: 21/07/2017 13:20
Διάσπαρτα Νέφη
Διάσπαρτα Νέφη
 Ανεμοι από ΔΒΔ
Ανεμος: ΔΒΔ 33 km/h
Θερμοκρασία: 27°C
Δείκτης Δυσφορίας: 28°C
Σημείο Δρόσου: 17°C
Υγρασία: 54%
Βαρόμετρο: 1010 hPa
Νέφωση: Διάσπαρτα Νέφη
Ορατότητα: 10 km
Λεπτομέρειες Νεφών: Διάσπαρτα Νέφη 762 m
2017/07/21 10:20 LGIR 211020Z 30018KT 9999 FEW025 27/17 Q1010 NOSIG
LGRP - Rhodes-Elev 5m
Απόσταση από σταθμό: ΝΑ 649km
Ενημερώθηκε: 21/07/2017 13:20
Διάσπαρτα Νέφη
Διάσπαρτα Νέφη
 Ανεμοι από ΔΝΔ
Ανεμος: ΔΝΔ 28 km/h
Θερμοκρασία: 29°C
Δείκτης Δυσφορίας: 31°C
Σημείο Δρόσου: 20°C
Υγρασία: 58%
Βαρόμετρο: 1006 hPa
Νέφωση: Διάσπαρτα Νέφη
Ορατότητα: 10 km
Λεπτομέρειες Νεφών: Διάσπαρτα Νέφη 610 m
2017/07/21 10:20 LGRP 211020Z 25015KT 9999 FEW020 29/20 Q1006 NOSIG
 
LWOH - Ohrid/FYROM-Elev 761m
Απόσταση από σταθμό: ΔΒΔ 188km
Ενημερώθηκε: 21/07/2017 13:30
Διάσπαρτα Νέφη
Διάσπαρτα Νέφη
 Ανεμοι από ΝΝΑ
Ανεμος: ΝΝΑ 13 km/h
Θερμοκρασία: 23°C
Σημείο Δρόσου: 16°C
Υγρασία: 65%
Βαρόμετρο: 1018 hPa
Νέφωση: Διάσπαρτα Νέφη
Ορατότητα: 10 km
Λεπτομέρειες Νεφών: Διάσπαρτα Νέφη 1219 m
2017/07/21 10:30 LWOH 211030Z 16007KT 9999 FEW040 23/16 Q1018
LBSF - Sofia/Bulgaria-Elev 595m
Απόσταση από σταθμό: Β 227km
Ενημερώθηκε: 21/07/2017 13:30
Διάσπαρτα Νέφη
Διάσπαρτα Νέφη
 Ανεμοι από μεταβλητός
Ανεμος: μεταβλητός 9 km/h
Θερμοκρασία: 30°C
Σημείο Δρόσου: 10°C
Υγρασία: 29%
Βαρόμετρο: 1017 hPa
Νέφωση: Διάσπαρτα Νέφη
Ορατότητα: 10 km
Λεπτομέρειες Νεφών: Διάσπαρτα Νέφη 1981 m
2017/07/21 10:30 LBSF 211030Z VRB05KT 9999 FEW065 30/10 Q1017 NOSIG